Cable, Wisconsin
Current Conditions -  °F | °C
As of 11:53 AM on Monday 24 Nov 2014 (Local Time) from KHYR Reporting Station
Moderate Snow Moderate Snow  
Wind Chill: 31°   Ceiling: 800
Heat Index: 31°   Visibility: 0.5mi
Dew Point: 29°   Wind: 3mph
Humidity: 92%   Direction: NA
Pressure: 29.28"   Gusts: NA
Location:  46.21°N, 91.29°W
Report Text: KHYR 241753Z AUTO VRB03KT 1/2SM SN FZFG OVC008 M01/M02 A2928 RMK AO2 SLP927 P0003 60005 T10061017 10006 21006 51019
Loading
Personal Weather Stations






























Interactive Weather Map New forecast layout! Learn more

10-Day Weather Forecast

Advertisements
Track Severe Weather on mobile